| time (UTC) | temp F | wind direction | speed MPH | gust MPH | rain 1hr in | rain 24hr in | rain mn in | humidity % | barometer mb |
| 20260906192023 | 102 | 141 | 0.0 | 3.0 | 0.00 | 0.00 | 0.00 | 33 | 1065.1 |
| 20260906191518 | 101 | 147 | 2.0 | 6.0 | 0.00 | 0.00 | 0.00 | 34 | 1065.1 |
| 20260906191017 | 102 | 117 | 2.0 | 7.0 | 0.00 | 0.00 | 0.00 | 34 | 1065.3 |
| 20260906190516 | 101 | 203 | 2.0 | 2.0 | 0.00 | 0.00 | 0.00 | 33 | 1065.1 |
| 20260906190012 | 100 | 42 | 2.0 | 2.0 | 0.00 | 0.00 | 0.00 | 34 | 1065.5 |
| 20260906185510 | 100 | 159 | 3.0 | 7.0 | 0.00 | 0.00 | 0.00 | 35 | 1065.6 |
| 20260906185009 | 99 | 126 | 3.0 | 3.0 | 0.00 | 0.00 | 0.00 | 36 | 1065.4 |
| 20260906184505 | 98 | 144 | 0.0 | 2.0 | 0.00 | 0.00 | 0.00 | 36 | 1065.6 |
| 20260906184000 | 99 | 166 | 2.0 | 3.0 | 0.00 | 0.00 | 0.00 | 37 | 1065.7 |
| 20260906183456 | 99 | 141 | 1.0 | 2.0 | 0.00 | 0.00 | 0.00 | 38 | 1065.8 |
| 20260906182952 | 98 | 120 | 0.0 | 1.0 | 0.00 | 0.00 | 0.00 | 38 | 1065.9 |
| 20260906182447 | 97 | 107 | 0.0 | 0.0 | 0.00 | 0.00 | 0.00 | 40 | 1065.9 |
| 20260906181943 | 97 | 106 | 1.0 | 1.0 | 0.00 | 0.00 | 0.00 | 38 | 1066.2 |
| 20260906181439 | 97 | 121 | 0.0 | 2.0 | 0.00 | 0.00 | 0.00 | 38 | 1066.2 |
| 20260906180935 | 97 | 128 | 0.0 | 1.0 | 0.00 | 0.00 | 0.00 | 39 | 1066.4 |
| 20260906180429 | 96 | 151 | 2.0 | 4.0 | 0.00 | 0.00 | 0.00 | 39 | 1066.5 |
| 20260906175927 | 98 | 175 | 4.0 | 6.0 | 0.00 | 0.00 | 0.00 | 38 | 1066.6 |
| 20260906175422 | 99 | 137 | 0.0 | 3.0 | 0.00 | 0.00 | 0.00 | 37 | 1066.6 |
| 20260906174921 | 99 | 179 | 2.0 | 6.0 | 0.00 | 0.00 | 0.00 | 37 | 1066.8 |
| 20260906174420 | 98 | 117 | 0.0 | 1.0 | 0.00 | 0.00 | 0.00 | 39 | 1066.8 |
| 20260906173916 | 97 | 142 | 1.0 | 3.0 | 0.00 | 0.00 | 0.00 | 39 | 1066.9 |
| 20260906173411 | 97 | 133 | 1.0 | 2.0 | 0.00 | 0.00 | 0.00 | 39 | 1067.1 |
| 20260906172910 | 97 | 126 | 0.0 | 2.0 | 0.00 | 0.00 | 0.00 | 39 | 1067.3 |
| 20260906172407 | 96 | 115 | 0.0 | 2.0 | 0.00 | 0.00 | 0.00 | 40 | 1067.3 |
| 20260906171907 | 96 | 107 | 1.0 | 1.0 | 0.00 | 0.00 | 0.00 | 41 | 1067.6 |
| 20260906171356 | 96 | 121 | 0.0 | 0.0 | 0.00 | 0.00 | 0.00 | 41 | 1067.5 |
| 20260906170852 | 96 | 119 | 0.0 | 1.0 | 0.00 | 0.00 | 0.00 | 41 | 1067.5 |
| 20260906170348 | 95 | 141 | 1.0 | 3.0 | 0.00 | 0.00 | 0.00 | 41 | 1067.6 |
| 20260906165844 | 96 | 129 | 1.0 | 1.0 | 0.00 | 0.00 | 0.00 | 41 | 1067.8 |
| 20260906165343 | 95 | 97 | 1.0 | 1.0 | 0.00 | 0.00 | 0.00 | 42 | 1067.8 |
| 20260906164838 | 95 | 152 | 1.0 | 2.0 | 0.00 | 0.00 | 0.00 | 42 | 1067.9 |
| 20260906164337 | 95 | 135 | 1.0 | 2.0 | 0.00 | 0.00 | 0.00 | 42 | 1067.8 |
| 20260906163833 | 95 | 109 | 0.0 | 1.0 | 0.00 | 0.00 | 0.00 | 43 | 1068.0 |
| 20260906163330 | 94 | 182 | 2.0 | 3.0 | 0.00 | 0.00 | 0.00 | 43 | 1067.8 |
| 20260906162827 | 94 | 139 | 1.0 | 2.0 | 0.00 | 0.00 | 0.00 | 43 | 1067.8 |
| 20260906162326 | 94 | 155 | 2.0 | 3.0 | 0.00 | 0.00 | 0.00 | 43 | 1067.8 |
| 20260906161821 | 94 | 104 | 1.0 | 3.0 | 0.00 | 0.00 | 0.00 | 43 | 1067.9 |
| 20260906161320 | 94 | 113 | 0.0 | 1.0 | 0.00 | 0.00 | 0.00 | 43 | 1067.9 |
| 20260906160819 | 93 | 192 | 1.0 | 2.0 | 0.00 | 0.00 | 0.00 | 43 | 1068.0 |
| 20260906160314 | 93 | 120 | 0.0 | 2.0 | 0.00 | 0.00 | 0.00 | 44 | 1067.9 |
| 20260906155811 | 93 | 149 | 1.0 | 2.0 | 0.00 | 0.00 | 0.00 | 44 | 1067.7 |
| 20260906155307 | 93 | 135 | 0.0 | 0.0 | 0.00 | 0.00 | 0.00 | 45 | 1067.7 |
| 20260906154801 | 93 | 176 | 2.0 | 2.0 | 0.00 | 0.00 | 0.00 | 45 | 1067.8 |
| 20260906154251 | 92 | 113 | 0.0 | 3.0 | 0.00 | 0.00 | 0.00 | 46 | 1067.6 |
| 20260906153749 | 92 | 115 | 0.0 | 2.0 | 0.00 | 0.00 | 0.00 | 46 | 1067.7 |
| 20260906153244 | 91 | 117 | 1.0 | 1.0 | 0.00 | 0.00 | 0.00 | 47 | 1067.7 |
| 20260906152739 | 91 | 178 | 1.0 | 1.0 | 0.00 | 0.00 | 0.00 | 47 | 1067.7 |
| 20260906152233 | 91 | 120 | 0.0 | 1.0 | 0.00 | 0.00 | 0.00 | 49 | 1067.5 |
| 20260906151733 | 91 | 122 | 0.0 | 1.0 | 0.00 | 0.00 | 0.00 | 49 | 1067.5 |
| 20260906151228 | 91 | 104 | 0.0 | 2.0 | 0.00 | 0.00 | 0.00 | 49 | 1067.5 |
| 20260906150724 | 91 | 124 | 0.0 | 2.0 | 0.00 | 0.00 | 0.00 | 49 | 1067.6 |
| 20260906150219 | 92 | 136 | 1.0 | 2.0 | 0.00 | 0.00 | 0.00 | 48 | 1067.5 |
| 20260906145718 | 91 | 128 | 0.0 | 3.0 | 0.00 | 0.00 | 0.00 | 48 | 1067.6 |
| 20260906145217 | 91 | 132 | 0.0 | 2.0 | 0.00 | 0.00 | 0.00 | 48 | 1067.5 |
| 20260906144713 | 90 | 131 | 0.0 | 0.0 | 0.00 | 0.00 | 0.00 | 49 | 1067.3 |
| 20260906144207 | 90 | 135 | 0.0 | 1.0 | 0.00 | 0.00 | 0.00 | 49 | 1067.6 |
| 20260906143706 | 89 | 119 | 0.0 | 2.0 | 0.00 | 0.00 | 0.00 | 52 | 1067.5 |
| 20260906143203 | 88 | 139 | 0.0 | 1.0 | 0.00 | 0.00 | 0.00 | 53 | 1067.6 |
| 20260906142658 | 87 | 154 | 1.0 | 2.0 | 0.00 | 0.00 | 0.00 | 54 | 1067.7 |
| 20260906142153 | 87 | 135 | 0.0 | 2.0 | 0.00 | 0.00 | 0.00 | 55 | 1067.6 |
| 20260906141652 | 86 | 141 | 1.0 | 2.0 | 0.00 | 0.00 | 0.00 | 55 | 1067.3 |
| 20260906141146 | 86 | 132 | 0.0 | 1.0 | 0.00 | 0.00 | 0.00 | 55 | 1067.3 |
| 20260906140640 | 86 | 141 | 1.0 | 1.0 | 0.00 | 0.00 | 0.00 | 56 | 1067.4 |
| 20260906140135 | 85 | 152 | 1.0 | 2.0 | 0.00 | 0.00 | 0.00 | 57 | 1067.6 |
| 20260906135632 | 83 | 120 | 0.0 | 1.0 | 0.00 | 0.00 | 0.00 | 60 | 1067.3 |
| 20260906135128 | 82 | 121 | 0.0 | 0.0 | 0.00 | 0.00 | 0.00 | 64 | 1067.3 |
| 20260906134623 | 81 | 121 | 0.0 | 0.0 | 0.00 | 0.00 | 0.00 | 65 | 1067.4 |
| 20260906134118 | 81 | 121 | 0.0 | 0.0 | 0.00 | 0.00 | 0.00 | 65 | 1067.2 |
| 20260906133614 | 80 | 121 | 0.0 | 0.0 | 0.00 | 0.00 | 0.00 | 66 | 1067.3 |
| 20260906133109 | 80 | 121 | 0.0 | 0.0 | 0.00 | 0.00 | 0.00 | 67 | 1067.2 |
| 20260906132604 | 79 | 121 | 0.0 | 0.0 | 0.00 | 0.00 | 0.00 | 68 | 1067.1 |
| 20260906132100 | 78 | 121 | 0.0 | 0.0 | 0.00 | 0.00 | 0.00 | 69 | 1067.2 |
| 20260906131554 | 78 | 121 | 0.0 | 0.0 | 0.00 | 0.00 | 0.00 | 69 | 1067.1 |
| 20260906131050 | 78 | 121 | 0.0 | 0.0 | 0.00 | 0.00 | 0.00 | 69 | 1066.8 |
| 20260906130544 | 78 | 121 | 0.0 | 0.0 | 0.00 | 0.00 | 0.00 | 69 | 1066.8 |
| 20260906130040 | 78 | 121 | 0.0 | 0.0 | 0.00 | 0.00 | 0.00 | 69 | 1067.0 |
| 20260906125536 | 78 | 121 | 0.0 | 0.0 | 0.00 | 0.00 | 0.00 | 69 | 1066.9 |
| 20260906125031 | 77 | 121 | 0.0 | 0.0 | 0.00 | 0.00 | 0.00 | 70 | 1066.6 |
| 20260906124527 | 77 | 120 | 0.0 | 0.0 | 0.00 | 0.00 | 0.00 | 70 | 1066.8 |
| 20260906124021 | 77 | 120 | 0.0 | 0.0 | 0.00 | 0.00 | 0.00 | 71 | 1066.6 |
| 20260906123520 | 76 | 120 | 0.0 | 0.0 | 0.00 | 0.00 | 0.00 | 71 | 1066.5 |
| 20260906123015 | 76 | 120 | 0.0 | 0.0 | 0.00 | 0.00 | 0.00 | 71 | 1066.5 |
| 20260906122509 | 76 | 119 | 0.0 | 0.0 | 0.00 | 0.00 | 0.00 | 71 | 1066.5 |
| 20260906122006 | 76 | 119 | 0.0 | 0.0 | 0.00 | 0.00 | 0.00 | 72 | 1066.2 |
| 20260906121501 | 76 | 119 | 0.0 | 0.0 | 0.00 | 0.00 | 0.00 | 72 | 1066.3 |
| 20260906120958 | 76 | 119 | 0.0 | 0.0 | 0.00 | 0.00 | 0.00 | 72 | 1066.1 |
| 20260906120453 | 76 | 119 | 0.0 | 0.0 | 0.00 | 0.00 | 0.00 | 71 | 1065.9 |
| 20260906115949 | 76 | 119 | 0.0 | 0.0 | 0.00 | 0.00 | 0.00 | 71 | 1065.9 |
| 20260906115444 | 76 | 119 | 0.0 | 0.0 | 0.00 | 0.00 | 0.00 | 71 | 1065.6 |
| 20260906114938 | 76 | 119 | 0.0 | 0.0 | 0.00 | 0.00 | 0.00 | 71 | 1065.7 |
| 20260906114433 | 76 | 119 | 0.0 | 0.0 | 0.00 | 0.00 | 0.00 | 71 | 1065.7 |
| 20260906113929 | 76 | 119 | 0.0 | 0.0 | 0.00 | 0.00 | 0.00 | 70 | 1065.7 |
| 20260906113426 | 77 | 119 | 0.0 | 0.0 | 0.00 | 0.00 | 0.00 | 70 | 1065.5 |
| 20260906112923 | 77 | 119 | 0.0 | 0.0 | 0.00 | 0.00 | 0.00 | 70 | 1065.6 |
| 20260906112419 | 77 | 119 | 0.0 | 0.0 | 0.00 | 0.00 | 0.00 | 70 | 1065.5 |
| 20260906111914 | 77 | 119 | 0.0 | 0.0 | 0.00 | 0.00 | 0.00 | 69 | 1065.5 |
| 20260906111413 | 77 | 119 | 0.0 | 0.0 | 0.00 | 0.00 | 0.00 | 69 | 1065.5 |
| 20260906110909 | 77 | 119 | 0.0 | 0.0 | 0.00 | 0.00 | 0.00 | 68 | 1065.5 |
| 20260906110404 | 77 | 119 | 0.0 | 0.0 | 0.00 | 0.00 | 0.00 | 68 | 1065.4 |
| 20260906105903 | 78 | 119 | 0.0 | 0.0 | 0.00 | 0.00 | 0.00 | 68 | 1065.5 |
| 20260906105359 | 78 | 119 | 0.0 | 0.0 | 0.00 | 0.00 | 0.00 | 68 | 1065.6 |
| 20260906104854 | 78 | 120 | 0.0 | 0.0 | 0.00 | 0.00 | 0.00 | 67 | 1065.4 |
| 20260906104353 | 78 | 120 | 0.0 | 0.0 | 0.00 | 0.00 | 0.00 | 67 | 1065.5 |
| 20260906103851 | 78 | 120 | 0.0 | 0.0 | 0.00 | 0.00 | 0.00 | 67 | 1065.5 |
| 20260906103349 | 79 | 120 | 0.0 | 0.0 | 0.00 | 0.00 | 0.00 | 66 | 1065.5 |
| 20260906102846 | 79 | 120 | 0.0 | 0.0 | 0.00 | 0.00 | 0.00 | 66 | 1065.6 |
| 20260906102344 | 79 | 120 | 0.0 | 0.0 | 0.00 | 0.00 | 0.00 | 66 | 1065.5 |
| 20260906101840 | 79 | 120 | 0.0 | 0.0 | 0.00 | 0.00 | 0.00 | 66 | 1065.6 |
| 20260906101335 | 79 | 120 | 0.0 | 0.0 | 0.00 | 0.00 | 0.00 | 66 | 1065.4 |
| 20260906100831 | 79 | 120 | 0.0 | 0.0 | 0.00 | 0.00 | 0.00 | 66 | 1065.5 |
| 20260906100329 | 79 | 120 | 0.0 | 0.0 | 0.00 | 0.00 | 0.00 | 66 | 1065.5 |
| 20260906095825 | 79 | 120 | 0.0 | 0.0 | 0.00 | 0.00 | 0.00 | 65 | 1065.6 |
| 20260906095321 | 79 | 120 | 0.0 | 0.0 | 0.00 | 0.00 | 0.00 | 65 | 1065.5 |
| 20260906094820 | 79 | 120 | 0.0 | 0.0 | 0.00 | 0.00 | 0.00 | 65 | 1065.5 |
| 20260906094315 | 79 | 120 | 0.0 | 0.0 | 0.00 | 0.00 | 0.00 | 65 | 1065.5 |
| 20260906093811 | 79 | 120 | 0.0 | 0.0 | 0.00 | 0.00 | 0.00 | 65 | 1065.6 |
| 20260906093307 | 80 | 120 | 0.0 | 0.0 | 0.00 | 0.00 | 0.00 | 64 | 1065.2 |
| 20260906092801 | 80 | 120 | 0.0 | 0.0 | 0.00 | 0.00 | 0.00 | 64 | 1065.1 |
| 20260906092256 | 80 | 120 | 0.0 | 0.0 | 0.00 | 0.00 | 0.00 | 64 | 1065.4 |
| 20260906091752 | 80 | 120 | 0.0 | 0.0 | 0.00 | 0.00 | 0.00 | 63 | 1065.3 |
| 20260906091248 | 80 | 120 | 0.0 | 0.0 | 0.00 | 0.00 | 0.00 | 63 | 1065.5 |
| 20260906090744 | 80 | 121 | 0.0 | 0.0 | 0.00 | 0.00 | 0.00 | 63 | 1065.2 |
| 20260906090242 | 80 | 120 | 0.0 | 0.0 | 0.00 | 0.00 | 0.00 | 63 | 1065.2 |
| 20260906085737 | 80 | 124 | 0.0 | 0.0 | 0.00 | 0.00 | 0.00 | 63 | 1065.4 |
| 20260906085236 | 80 | 131 | 0.0 | 0.0 | 0.00 | 0.00 | 0.00 | 63 | 1065.3 |
| 20260906084730 | 80 | 131 | 0.0 | 0.0 | 0.00 | 0.00 | 0.00 | 63 | 1065.4 |
| 20260906084224 | 80 | 131 | 0.0 | 0.0 | 0.00 | 0.00 | 0.00 | 63 | 1065.2 |
| 20260906083719 | 80 | 131 | 0.0 | 0.0 | 0.00 | 0.00 | 0.00 | 63 | 1065.1 |
| 20260906083215 | 81 | 131 | 0.0 | 0.0 | 0.00 | 0.00 | 0.00 | 62 | 1065.3 |
| 20260906082710 | 81 | 131 | 0.0 | 0.0 | 0.00 | 0.00 | 0.00 | 62 | 1065.4 |
| 20260906082159 | 81 | 131 | 0.0 | 0.0 | 0.00 | 0.00 | 0.00 | 62 | 1065.4 |
| 20260906081650 | 81 | 131 | 0.0 | 0.0 | 0.00 | 0.00 | 0.00 | 62 | 1065.3 |
| 20260906081144 | 81 | 131 | 0.0 | 0.0 | 0.00 | 0.00 | 0.00 | 62 | 1065.4 |
| 20260906080641 | 81 | 131 | 0.0 | 0.0 | 0.00 | 0.00 | 0.00 | 62 | 1065.3 |
| 20260906080136 | 81 | 131 | 0.0 | 0.0 | 0.00 | 0.00 | 0.00 | 62 | 1065.2 |
| 20260906075630 | 81 | 131 | 0.0 | 0.0 | 0.00 | 0.00 | 0.00 | 62 | 1065.2 |
| 20260906075125 | 81 | 131 | 0.0 | 0.0 | 0.00 | 0.00 | 0.00 | 62 | 1065.4 |
| 20260906074621 | 81 | 131 | 0.0 | 0.0 | 0.00 | 0.00 | 0.00 | 61 | 1065.2 |
| 20260906074119 | 82 | 139 | 1.0 | 1.0 | 0.00 | 0.00 | 0.00 | 60 | 1065.2 |
| 20260906073614 | 82 | 136 | 0.0 | 1.0 | 0.00 | 0.00 | 0.00 | 60 | 1065.2 |
| 20260906073110 | 82 | 138 | 0.0 | 1.0 | 0.00 | 0.00 | 0.00 | 60 | 1065.0 |
| 20260906072604 | 82 | 135 | 0.0 | 0.0 | 0.00 | 0.00 | 0.00 | 60 | 1065.2 |
| 20260906072100 | 82 | 136 | 0.0 | 0.0 | 0.00 | 0.00 | 0.00 | 60 | 1065.2 |
| 20260906071556 | 82 | 135 | 0.0 | 0.0 | 0.00 | 0.00 | 0.00 | 61 | 1065.1 |
| 20260906071051 | 82 | 135 | 0.0 | 0.0 | 0.00 | 0.00 | 0.00 | 61 | 1064.9 |
| 20260906070548 | 81 | 135 | 0.0 | 0.0 | 0.00 | 0.00 | 0.00 | 61 | 1065.0 |
| 20260906070043 | 81 | 135 | 0.0 | 0.0 | 0.00 | 0.00 | 0.00 | 61 | 1065.1 |
| 20260906065543 | 81 | 135 | 0.0 | 0.0 | 0.00 | 0.00 | 0.00 | 61 | 1064.9 |
| 20260906065039 | 81 | 135 | 0.0 | 0.0 | 0.00 | 0.00 | 0.00 | 61 | 1065.0 |
| 20260906064534 | 81 | 135 | 0.0 | 0.0 | 0.00 | 0.00 | 0.00 | 61 | 1064.9 |
| 20260906064028 | 81 | 135 | 0.0 | 0.0 | 0.00 | 0.00 | 0.00 | 63 | 1065.2 |
| 20260906063524 | 81 | 135 | 0.0 | 0.0 | 0.00 | 0.00 | 0.00 | 63 | 1065.1 |
| 20260906063020 | 81 | 135 | 0.0 | 0.0 | 0.00 | 0.00 | 0.00 | 62 | 1065.0 |
| 20260906062514 | 81 | 135 | 0.0 | 0.0 | 0.00 | 0.00 | 0.00 | 61 | 1065.0 |
| 20260906062004 | 82 | 135 | 0.0 | 0.0 | 0.00 | 0.00 | 0.00 | 61 | 1065.0 |
| 20260906061500 | 82 | 135 | 0.0 | 0.0 | 0.00 | 0.00 | 0.00 | 61 | 1065.1 |
| 20260906060954 | 82 | 135 | 0.0 | 0.0 | 0.00 | 0.00 | 0.00 | 60 | 1065.3 |
| 20260906060450 | 82 | 135 | 0.0 | 1.0 | 0.00 | 0.00 | 0.00 | 60 | 1065.2 |
| 20260906055947 | 82 | 135 | 0.0 | 0.0 | 0.00 | 0.00 | 0.00 | 60 | 1065.1 |
| 20260906055443 | 82 | 135 | 0.0 | 0.0 | 0.00 | 0.00 | 0.00 | 60 | 1065.3 |
| 20260906054937 | 82 | 135 | 0.0 | 0.0 | 0.00 | 0.00 | 0.00 | 59 | 1065.3 |
| 20260906054433 | 82 | 135 | 0.0 | 0.0 | 0.00 | 0.00 | 0.00 | 59 | 1065.0 |
| 20260906053928 | 83 | 135 | 0.0 | 0.0 | 0.00 | 0.00 | 0.00 | 59 | 1065.3 |
| 20260906053425 | 83 | 135 | 0.0 | 0.0 | 0.00 | 0.00 | 0.00 | 58 | 1065.0 |
| 20260906052920 | 83 | 135 | 0.0 | 0.0 | 0.00 | 0.00 | 0.00 | 58 | 1065.1 |
| 20260906052416 | 83 | 135 | 0.0 | 0.0 | 0.00 | 0.00 | 0.00 | 58 | 1065.1 |
| 20260906051912 | 83 | 135 | 0.0 | 1.0 | 0.00 | 0.00 | 0.00 | 57 | 1065.1 |
| 20260906051407 | 83 | 135 | 0.0 | 1.0 | 0.00 | 0.00 | 0.00 | 57 | 1065.2 |
| 20260906050902 | 84 | 135 | 0.0 | 1.0 | 0.00 | 0.00 | 0.00 | 57 | 1065.2 |
| 20260906050357 | 84 | 135 | 0.0 | 0.0 | 0.00 | 0.00 | 0.00 | 56 | 1065.1 |
| 20260906045856 | 84 | 135 | 0.0 | 0.0 | 0.00 | 0.00 | 0.00 | 56 | 1065.0 |
| 20260906045355 | 84 | 135 | 0.0 | 0.0 | 0.00 | 0.00 | 0.00 | 56 | 1065.1 |
| 20260906044851 | 84 | 135 | 0.0 | 0.0 | 0.00 | 0.00 | 0.00 | 56 | 1065.1 |
| 20260906044351 | 85 | 135 | 0.0 | 0.0 | 0.00 | 0.00 | 0.00 | 56 | 1065.0 |
| 20260906043847 | 85 | 135 | 0.0 | 0.0 | 0.00 | 0.00 | 0.00 | 55 | 1065.0 |
| 20260906043343 | 85 | 135 | 0.0 | 0.0 | 0.00 | 0.00 | 0.00 | 55 | 1064.9 |
| 20260906042838 | 86 | 135 | 0.0 | 0.0 | 0.00 | 0.00 | 0.00 | 54 | 1065.0 |
| 20260906042337 | 86 | 135 | 0.0 | 0.0 | 0.00 | 0.00 | 0.00 | 54 | 1065.1 |
| 20260906041832 | 86 | 135 | 0.0 | 0.0 | 0.00 | 0.00 | 0.00 | 53 | 1065.2 |
| 20260906041328 | 87 | 135 | 0.0 | 0.0 | 0.00 | 0.00 | 0.00 | 52 | 1065.2 |
| 20260906040828 | 87 | 135 | 0.0 | 0.0 | 0.00 | 0.00 | 0.00 | 52 | 1065.1 |
| 20260906040323 | 87 | 135 | 0.0 | 0.0 | 0.00 | 0.00 | 0.00 | 52 | 1065.0 |
| 20260906035819 | 87 | 135 | 0.0 | 0.0 | 0.00 | 0.00 | 0.00 | 52 | 1065.1 |
| 20260906035314 | 87 | 135 | 0.0 | 0.0 | 0.00 | 0.00 | 0.00 | 51 | 1064.9 |
| 20260906034809 | 88 | 135 | 0.0 | 0.0 | 0.00 | 0.00 | 0.00 | 51 | 1065.0 |
| 20260906034303 | 88 | 135 | 0.0 | 0.0 | 0.00 | 0.00 | 0.00 | 50 | 1064.8 |
| 20260906033759 | 89 | 135 | 0.0 | 0.0 | 0.00 | 0.00 | 0.00 | 49 | 1064.8 |
| 20260906033258 | 89 | 135 | 0.0 | 0.0 | 0.00 | 0.00 | 0.00 | 48 | 1064.6 |
| 20260906032755 | 89 | 133 | 0.0 | 0.0 | 0.00 | 0.00 | 0.00 | 48 | 1064.6 |
| 20260906032250 | 90 | 144 | 0.0 | 1.0 | 0.00 | 0.00 | 0.00 | 48 | 1064.5 |
| 20260906031744 | 90 | 136 | 0.0 | 2.0 | 0.00 | 0.00 | 0.00 | 47 | 1064.5 |
| 20260906031241 | 90 | 132 | 1.0 | 2.0 | 0.00 | 0.00 | 0.00 | 47 | 1064.4 |
| 20260906030735 | 90 | 135 | 0.0 | 0.0 | 0.00 | 0.00 | 0.00 | 47 | 1064.5 |
| 20260906030230 | 90 | 137 | 1.0 | 1.0 | 0.00 | 0.00 | 0.00 | 46 | 1064.3 |
| 20260906025729 | 91 | 132 | 0.0 | 2.0 | 0.00 | 0.00 | 0.00 | 46 | 1064.4 |
| 20260906025223 | 90 | 141 | 2.0 | 2.0 | 0.00 | 0.00 | 0.00 | 46 | 1064.3 |
| 20260906024723 | 90 | 151 | 1.0 | 3.0 | 0.00 | 0.00 | 0.00 | 47 | 1064.4 |
| 20260906024222 | 90 | 151 | 0.0 | 0.0 | 0.00 | 0.00 | 0.00 | 47 | 1064.3 |
| 20260906023718 | 90 | 151 | 0.0 | 0.0 | 0.00 | 0.00 | 0.00 | 47 | 1064.4 |
| 20260906023213 | 90 | 151 | 0.0 | 1.0 | 0.00 | 0.00 | 0.00 | 47 | 1064.4 |
| 20260906022709 | 90 | 151 | 0.0 | 0.0 | 0.00 | 0.00 | 0.00 | 47 | 1064.0 |
| 20260906022204 | 90 | 151 | 0.0 | 1.0 | 0.00 | 0.00 | 0.00 | 46 | 1063.8 |
| 20260906021700 | 90 | 151 | 0.0 | 0.0 | 0.00 | 0.00 | 0.00 | 46 | 1063.8 |
| 20260906021158 | 91 | 150 | 0.0 | 0.0 | 0.00 | 0.00 | 0.00 | 46 | 1063.6 |
| 20260906020652 | 91 | 150 | 0.0 | 0.0 | 0.00 | 0.00 | 0.00 | 45 | 1063.7 |
| 20260906020148 | 91 | 150 | 1.0 | 1.0 | 0.00 | 0.00 | 0.00 | 45 | 1063.7 |
| 20260906015642 | 91 | 150 | 0.0 | 0.0 | 0.00 | 0.00 | 0.00 | 46 | 1063.6 |
| 20260906015141 | 91 | 150 | 0.0 | 1.0 | 0.00 | 0.00 | 0.00 | 45 | 1063.5 |
| 20260906014640 | 91 | 150 | 0.0 | 0.0 | 0.00 | 0.00 | 0.00 | 45 | 1063.7 |
| 20260906014137 | 91 | 150 | 0.0 | 1.0 | 0.00 | 0.00 | 0.00 | 44 | 1063.5 |
| 20260906013632 | 92 | 150 | 0.0 | 0.0 | 0.00 | 0.00 | 0.00 | 44 | 1063.3 |
| 20260906013127 | 92 | 150 | 0.0 | 1.0 | 0.00 | 0.00 | 0.00 | 44 | 1063.4 |
| 20260906012622 | 92 | 150 | 0.0 | 1.0 | 0.00 | 0.00 | 0.00 | 44 | 1063.3 |
| 20260906012117 | 92 | 150 | 0.0 | 1.0 | 0.00 | 0.00 | 0.00 | 44 | 1063.2 |
| 20260906011612 | 92 | 150 | 0.0 | 1.0 | 0.00 | 0.00 | 0.00 | 43 | 1063.3 |
| 20260906011107 | 93 | 149 | 0.0 | 0.0 | 0.00 | 0.00 | 0.00 | 43 | 1063.5 |
| 20260906010603 | 93 | 149 | 0.0 | 0.0 | 0.00 | 0.00 | 0.00 | 43 | 1063.3 |
| 20260906010058 | 93 | 149 | 0.0 | 1.0 | 0.00 | 0.00 | 0.00 | 42 | 1063.3 |
| 20260906005557 | 93 | 149 | 0.0 | 1.0 | 0.00 | 0.00 | 0.00 | 42 | 1063.3 |
| 20260906005056 | 94 | 148 | 0.0 | 0.0 | 0.00 | 0.00 | 0.00 | 42 | 1063.3 |
| 20260906004556 | 94 | 148 | 0.0 | 1.0 | 0.00 | 0.00 | 0.00 | 42 | 1063.3 |
| 20260906004051 | 95 | 147 | 0.0 | 0.0 | 0.00 | 0.00 | 0.00 | 41 | 1063.1 |
| 20260906003546 | 95 | 148 | 1.0 | 1.0 | 0.00 | 0.00 | 0.00 | 40 | 1063.1 |
| 20260906003042 | 95 | 145 | 0.0 | 1.0 | 0.00 | 0.00 | 0.00 | 40 | 1063.3 |
| 20260906002537 | 96 | 145 | 0.0 | 1.0 | 0.00 | 0.00 | 0.00 | 40 | 1063.1 |
| 20260906002032 | 96 | 144 | 0.0 | 0.0 | 0.00 | 0.00 | 0.00 | 39 | 1063.1 |
| 20260906001527 | 96 | 145 | 1.0 | 1.0 | 0.00 | 0.00 | 0.00 | 39 | 1063.2 |
| 20260906001021 | 97 | 141 | 1.0 | 2.0 | 0.00 | 0.00 | 0.00 | 38 | 1063.0 |
| 20260906000518 | 97 | 132 | 0.0 | 1.0 | 0.00 | 0.00 | 0.00 | 38 | 1063.2 |
| 20260906000012 | 97 | 153 | 1.0 | 2.0 | 0.00 | 0.00 | 0.00 | 38 | 1063.1 |
| 20260905235506 | 97 | 133 | 1.0 | 3.0 | 0.00 | 0.00 | 0.00 | 37 | 1063.1 |
| 20260905235001 | 98 | 206 | 2.0 | 6.0 | 0.00 | 0.00 | 0.00 | 37 | 1063.1 |
| 20260905234457 | 98 | 168 | 3.0 | 3.0 | 0.00 | 0.00 | 0.00 | 36 | 1063.2 |
| 20260905233956 | 98 | 155 | 1.0 | 4.0 | 0.00 | 0.00 | 0.00 | 36 | 1063.1 |
| 20260905233452 | 98 | 131 | 0.0 | 3.0 | 0.00 | 0.00 | 0.00 | 36 | 1063.1 |
| 20260905232950 | 98 | 130 | 0.0 | 4.0 | 0.00 | 0.00 | 0.00 | 36 | 1063.2 |
| 20260905232447 | 99 | 123 | 1.0 | 2.0 | 0.00 | 0.00 | 0.00 | 35 | 1063.2 |
| 20260905231942 | 99 | 120 | 0.0 | 2.0 | 0.00 | 0.00 | 0.00 | 34 | 1063.1 |
| 20260905231438 | 100 | 132 | 3.0 | 3.0 | 0.00 | 0.00 | 0.00 | 34 | 1063.3 |
| 20260905230928 | 101 | 155 | 2.0 | 3.0 | 0.00 | 0.00 | 0.00 | 34 | 1063.2 |
| 20260905230426 | 102 | 173 | 3.0 | 4.0 | 0.00 | 0.00 | 0.00 | 34 | 1063.2 |
| 20260905225920 | 102 | 111 | 1.0 | 2.0 | 0.00 | 0.00 | 0.00 | 34 | 1062.9 |
| 20260905225415 | 102 | 137 | 0.0 | 2.0 | 0.00 | 0.00 | 0.00 | 34 | 1063.2 |
| 20260905224910 | 102 | 81 | 2.0 | 3.0 | 0.00 | 0.00 | 0.00 | 34 | 1063.2 |
| 20260905224406 | 102 | 142 | 1.0 | 2.0 | 0.00 | 0.00 | 0.00 | 34 | 1063.2 |
| 20260905223859 | 102 | 131 | 1.0 | 1.0 | 0.00 | 0.00 | 0.00 | 34 | 1063.2 |
| 20260905223358 | 101 | 126 | 1.0 | 1.0 | 0.00 | 0.00 | 0.00 | 35 | 1063.3 |
| 20260905222857 | 103 | 126 | 1.0 | 2.0 | 0.00 | 0.00 | 0.00 | 34 | 1063.3 |
| 20260905222356 | 103 | 110 | 2.0 | 3.0 | 0.00 | 0.00 | 0.00 | 34 | 1063.3 |
| 20260905221852 | 103 | 134 | 2.0 | 3.0 | 0.00 | 0.00 | 0.00 | 34 | 1063.2 |
| 20260905221349 | 103 | 149 | 2.0 | 3.0 | 0.00 | 0.00 | 0.00 | 33 | 1063.2 |
| 20260905220839 | 103 | 183 | 2.0 | 6.0 | 0.00 | 0.00 | 0.00 | 33 | 1063.3 |
| 20260905220335 | 104 | 144 | 1.0 | 4.0 | 0.00 | 0.00 | 0.00 | 32 | 1063.2 |
| 20260905215835 | 104 | 171 | 2.0 | 3.0 | 0.00 | 0.00 | 0.00 | 32 | 1063.0 |
| 20260905215330 | 104 | 128 | 0.0 | 2.0 | 0.00 | 0.00 | 0.00 | 32 | 1063.2 |
| 20260905214827 | 104 | 144 | 2.0 | 3.0 | 0.00 | 0.00 | 0.00 | 33 | 1063.0 |
| 20260905214322 | 104 | 122 | 0.0 | 3.0 | 0.00 | 0.00 | 0.00 | 32 | 1063.2 |
| 20260905213816 | 104 | 158 | 0.0 | 2.0 | 0.00 | 0.00 | 0.00 | 33 | 1063.3 |
| 20260905213312 | 105 | 156 | 2.0 | 3.0 | 0.00 | 0.00 | 0.00 | 33 | 1063.2 |
| 20260905212807 | 105 | 139 | 3.0 | 3.0 | 0.00 | 0.00 | 0.00 | 32 | 1063.3 |
| 20260905212306 | 105 | 291 | 2.0 | 6.0 | 0.00 | 0.00 | 0.00 | 33 | 1063.3 |
| 20260905211802 | 104 | 129 | 2.0 | 2.0 | 0.00 | 0.00 | 0.00 | 33 | 1063.2 |
| 20260905211256 | 105 | 136 | 1.0 | 1.0 | 0.00 | 0.00 | 0.00 | 31 | 1063.3 |
| 20260905210754 | 103 | 121 | 0.0 | 3.0 | 0.00 | 0.00 | 0.00 | 33 | 1063.3 |
| 20260905210253 | 103 | 137 | 1.0 | 4.0 | 0.00 | 0.00 | 0.00 | 33 | 1063.4 |
| 20260905205752 | 103 | 179 | 2.0 | 3.0 | 0.00 | 0.00 | 0.00 | 33 | 1063.5 |
| 20260905205247 | 103 | 187 | 2.0 | 6.0 | 0.00 | 0.00 | 0.00 | 35 | 1063.6 |
| 20260905204746 | 103 | 184 | 2.0 | 2.0 | 0.00 | 0.00 | 0.00 | 33 | 1063.6 |
| 20260905204242 | 103 | 197 | 2.0 | 3.0 | 0.00 | 0.00 | 0.00 | 34 | 1063.7 |
| 20260905203741 | 104 | 144 | 2.0 | 4.0 | 0.00 | 0.00 | 0.00 | 34 | 1063.7 |
| 20260905203237 | 105 | 125 | 1.0 | 2.0 | 0.00 | 0.00 | 0.00 | 35 | 1063.9 |
| 20260905202732 | 103 | 147 | 1.0 | 2.0 | 0.00 | 0.00 | 0.00 | 35 | 1064.0 |
| 20260905202227 | 102 | 149 | 1.0 | 3.0 | 0.00 | 0.00 | 0.00 | 36 | 1064.1 |
| 20260905201722 | 103 | 123 | 1.0 | 4.0 | 0.00 | 0.00 | 0.00 | 36 | 1064.3 |
| 20260905201217 | 103 | 144 | 2.0 | 4.0 | 0.00 | 0.00 | 0.00 | 35 | 1064.4 |
| 20260905200712 | 103 | 125 | 2.0 | 3.0 | 0.00 | 0.00 | 0.00 | 36 | 1064.4 |
| 20260905200208 | 102 | 118 | 1.0 | 3.0 | 0.00 | 0.00 | 0.00 | 36 | 1064.4 |
| 20260905195706 | 102 | 130 | 2.0 | 2.0 | 0.00 | 0.00 | 0.00 | 37 | 1064.5 |
| 20260905195201 | 102 | 153 | 3.0 | 4.0 | 0.00 | 0.00 | 0.00 | 36 | 1064.7 |
| 20260905194656 | 100 | 121 | 1.0 | 4.0 | 0.00 | 0.00 | 0.00 | 38 | 1064.5 |
| 20260905194155 | 100 | 144 | 1.0 | 3.0 | 0.00 | 0.00 | 0.00 | 38 | 1064.6 |
| 20260905193650 | 102 | 151 | 1.0 | 7.0 | 0.00 | 0.00 | 0.00 | 37 | 1064.6 |
| 20260905193145 | 102 | 105 | 1.0 | 2.0 | 0.00 | 0.00 | 0.00 | 36 | 1064.7 |
| 20260905192640 | 100 | 157 | 2.0 | 3.0 | 0.00 | 0.00 | 0.00 | 38 | 1064.7 |